Time;durP1;ratioP1;P1;durP2;ratioP2;P2;SDS_P1;SDS_P2;PMS_P1;PMS_P2;Temp;Humidity;BMP_temperature;BMP_pressure;BME280_temperature;BME280_humidity;BME280_pressure;Samples;Min_cycle;Max_cycle;Signal;HPM_P1;HPM_P2
2022/07/05 00:01:41;;;;;;;1.77;1.67;;;25.70;95.30;;;;;;12982913;22;20631;-86
2022/07/05 00:12:05;;;;;;;2.05;1.83;;;25.60;95.40;;;;;;12981808;22;20247;-86
2022/07/05 00:17:07;;;;;;;1.63;1.52;;;25.60;95.50;;;;;;12955058;22;20185;-85
2022/07/05 00:22:10;;;;;;;1.63;1.52;;;25.60;95.50;;;;;;12999398;22;20166;-86
2022/07/05 00:27:12;;;;;;;1.60;1.50;;;25.60;95.60;;;;;;12983022;22;20228;-85
2022/07/05 00:32:15;;;;;;;1.80;1.70;;;25.50;95.60;;;;;;12980884;22;20239;-85
2022/07/05 00:37:18;;;;;;;2.13;1.92;;;25.50;95.70;;;;;;12954154;22;20582;-85
2022/07/05 00:42:20;;;;;;;1.80;1.70;;;25.50;95.70;;;;;;12952620;22;20227;-85
2022/07/05 00:47:23;;;;;;;2.00;1.90;;;25.50;95.80;;;;;;12953813;22;20178;-85
2022/07/05 00:52:25;;;;;;;1.70;1.60;;;25.50;95.80;;;;;;12953587;22;20207;-86
2022/07/05 00:57:28;;;;;;;1.80;1.70;;;25.40;95.90;;;;;;12953561;22;20672;-86
2022/07/05 01:02:31;;;;;;;1.98;1.88;;;25.40;95.90;;;;;;12981134;22;20197;-85
2022/07/05 01:07:35;;;;;;;2.38;1.95;;;25.40;96.00;;;;;;12953175;22;20177;-85
2022/07/05 01:12:39;;;;;;;1.95;1.85;;;25.40;96.00;;;;;;12980815;22;20567;-85
2022/07/05 01:17:41;;;;;;;1.80;1.70;;;25.40;96.00;;;;;;12952396;22;20193;-86
2022/07/05 01:22:55;;;;;;;2.78;2.03;;;25.40;96.10;;;;;;12954443;22;20539;-86
2022/07/05 01:27:59;;;;;;;1.67;1.58;;;25.40;96.10;;;;;;12980730;22;20503;-85
2022/07/05 01:33:05;;;;;;;1.85;1.75;;;25.30;96.40;;;;;;12958237;22;20174;-85
2022/07/05 01:38:10;;;;;;;1.88;1.75;;;25.30;96.20;;;;;;13003432;22;20227;-86
2022/07/05 01:43:13;;;;;;;1.75;1.65;;;25.30;96.20;;;;;;12984138;22;20545;-86
2022/07/05 01:48:19;;;;;;;1.60;1.45;;;25.30;96.20;;;;;;12958064;22;20235;-85
2022/07/05 01:53:28;;;;;;;1.85;1.75;;;25.30;96.30;;;;;;13003626;22;20208;-86
2022/07/05 01:58:32;;;;;;;1.80;1.70;;;25.30;96.30;;;;;;12957077;22;20197;-85
2022/07/05 02:03:35;;;;;;;2.30;2.10;;;25.20;96.40;;;;;;12984341;22;20485;-86
2022/07/05 02:09:03;;;;;;;2.00;1.90;;;25.20;96.40;;;;;;12961474;22;20177;-86
2022/07/05 02:14:05;;;;;;;1.98;1.88;;;25.20;96.40;;;;;;12956185;22;20177;-85
2022/07/05 02:19:12;;;;;;;1.88;1.77;;;25.20;96.40;;;;;;12955560;22;20513;-86
2022/07/05 02:24:19;;;;;;;2.08;1.98;;;25.20;96.40;;;;;;12955928;22;20192;-86
2022/07/05 02:29:29;;;;;;;1.80;1.70;;;25.20;96.40;;;;;;12955688;22;20174;-85
2022/07/05 02:34:35;;;;;;;1.63;1.52;;;25.20;96.40;;;;;;12955780;22;20177;-85
2022/07/05 02:39:38;;;;;;;1.73;1.63;;;25.20;96.40;;;;;;12927318;22;20193;-86
2022/07/05 02:44:44;;;;;;;1.80;1.70;;;25.20;96.40;;;;;;12928644;22;20177;-85
2022/07/05 02:49:48;;;;;;;1.80;1.70;;;25.20;96.50;;;;;;12955250;22;20526;-85
2022/07/05 02:54:51;;;;;;;1.70;1.60;;;25.10;96.50;;;;;;12955235;22;20208;-85
2022/07/05 02:59:55;;;;;;;1.73;1.63;;;25.20;96.50;;;;;;12953334;22;20725;-85
2022/07/05 03:05:04;;;;;;;1.83;1.73;;;25.20;96.40;;;;;;12930904;22;20243;-85
2022/07/05 03:10:07;;;;;;;1.63;1.52;;;25.10;96.40;;;;;;12953891;22;20275;-85
2022/07/05 03:15:11;;;;;;;1.83;1.70;;;25.10;96.50;;;;;;12955326;22;20645;-85
2022/07/05 03:20:14;;;;;;;2.88;1.55;;;25.10;96.50;;;;;;12982104;22;20186;-85
2022/07/05 03:25:16;;;;;;;2.00;1.90;;;25.10;96.50;;;;;;12954084;22;20165;-85
2022/07/05 03:30:19;;;;;;;1.60;1.50;;;25.10;96.50;;;;;;12980257;22;20249;-85
2022/07/05 03:35:22;;;;;;;3.28;1.73;;;25.10;96.50;;;;;;12954506;22;20572;-85
2022/07/05 03:40:26;;;;;;;2.50;1.58;;;25.10;96.50;;;;;;12953563;22;20193;-86
2022/07/05 03:45:29;;;;;;;1.92;1.55;;;25.10;96.50;;;;;;12951767;22;20555;-86
2022/07/05 03:50:33;;;;;;;1.90;1.65;;;25.20;96.40;;;;;;12927167;22;20648;-86
2022/07/05 03:55:36;;;;;;;1.70;1.60;;;25.20;96.40;;;;;;12951743;22;20955;-86
2022/07/05 04:00:41;;;;;;;2.10;1.92;;;25.20;96.40;;;;;;12927314;22;20217;-86
2022/07/05 04:05:48;;;;;;;1.63;1.52;;;25.20;96.40;;;;;;12976432;22;20232;-86
2022/07/05 04:10:51;;;;;;;1.92;1.83;;;25.20;96.30;;;;;;12954131;22;20202;-86
2022/07/05 04:15:56;;;;;;;1.65;1.55;;;25.20;96.30;;;;;;12953266;22;20174;-86
2022/07/05 04:20:59;;;;;;;1.95;1.85;;;25.30;96.20;;;;;;12954078;22;20247;-87
2022/07/05 04:26:02;;;;;;;1.80;1.70;;;25.30;96.20;;;;;;12981063;22;20563;-86
2022/07/05 04:31:09;;;;;;;2.00;1.90;;;25.40;96.00;;;;;;12999046;22;20216;-86
2022/07/05 04:36:17;;;;;;;2.05;1.95;;;25.40;96.10;;;;;;12952408;22;20178;-87
2022/07/05 04:41:20;;;;;;;1.98;1.83;;;25.50;95.90;;;;;;12953196;22;20514;-86
2022/07/05 04:46:23;;;;;;;1.63;1.52;;;25.50;95.80;;;;;;12953015;22;20170;-86
2022/07/05 04:51:27;;;;;;;2.10;1.92;;;25.50;95.80;;;;;;12952211;22;20182;-86
2022/07/05 04:56:30;;;;;;;2.00;1.80;;;25.50;96.10;;;;;;12954157;22;20177;-86
2022/07/05 05:01:33;;;;;;;2.25;2.05;;;25.50;95.90;;;;;;12980193;22;20247;-86
2022/07/05 05:06:36;;;;;;;2.15;1.95;;;25.50;96.00;;;;;;12952767;22;20178;-86
2022/07/05 05:11:38;;;;;;;1.85;1.70;;;25.40;96.10;;;;;;12963919;22;20190;-86
2022/07/05 05:16:41;;;;;;;1.60;1.50;;;25.40;96.30;;;;;;12981922;22;20166;-86
2022/07/05 05:21:44;;;;;;;1.70;1.60;;;25.40;96.30;;;;;;12981301;22;20185;-86
2022/07/05 05:26:47;;;;;;;2.25;1.80;;;25.30;96.40;;;;;;12999470;22;20188;-85
2022/07/05 05:31:49;;;;;;;2.70;2.08;;;25.30;96.40;;;;;;12970802;22;20192;-84
2022/07/05 05:36:52;;;;;;;1.67;1.58;;;25.30;96.50;;;;;;12950516;22;20182;-85
2022/07/05 05:41:54;;;;;;;2.40;2.20;;;25.40;96.50;;;;;;12994509;22;20189;-84
2022/07/05 05:46:57;;;;;;;2.08;1.98;;;25.40;96.40;;;;;;12925661;22;20174;-84
2022/07/05 05:51:59;;;;;;;1.95;1.85;;;25.50;96.40;;;;;;12977598;22;20212;-85
2022/07/05 05:57:02;;;;;;;2.05;1.85;;;25.50;96.50;;;;;;12970944;22;20521;-84
2022/07/05 06:02:04;;;;;;;2.25;2.15;;;25.50;96.40;;;;;;12979878;22;20501;-84
2022/07/05 06:07:08;;;;;;;2.13;2.03;;;25.50;96.40;;;;;;12951810;22;20177;-84
2022/07/05 06:12:11;;;;;;;2.35;2.15;;;25.50;96.40;;;;;;12978621;22;20235;-84
2022/07/05 06:17:13;;;;;;;3.67;2.53;;;25.50;96.40;;;;;;12981175;22;20166;-85
2022/07/05 06:22:16;;;;;;;2.65;2.33;;;25.50;96.50;;;;;;12955033;22;20202;-85
2022/07/05 06:27:18;;;;;;;1.92;1.77;;;25.60;96.40;;;;;;12952634;22;20235;-85
2022/07/05 06:32:21;;;;;;;2.47;2.30;;;25.70;96.30;;;;;;12982461;22;20170;-84
2022/07/05 06:37:23;;;;;;;2.05;1.77;;;25.70;96.30;;;;;;12953755;22;20211;-85
2022/07/05 06:42:26;;;;;;;2.30;2.10;;;25.70;96.20;;;;;;12981041;22;20185;-84
2022/07/05 06:47:28;;;;;;;2.05;1.95;;;25.80;96.10;;;;;;12982249;22;20192;-85
2022/07/05 06:52:32;;;;;;;1.90;1.80;;;25.90;96.00;;;;;;12953621;22;20239;-85
2022/07/05 06:57:34;;;;;;;2.45;2.25;;;25.90;96.00;;;;;;12954019;22;20178;-85
2022/07/05 07:02:37;;;;;;;2.03;1.90;;;25.90;95.60;;;;;;12980856;22;20192;-85
2022/07/05 07:13:02;;;;;;;2.70;2.50;;;26.00;95.80;;;;;;12983064;22;20258;-85
2022/07/05 07:18:05;;;;;;;1.67;1.58;;;26.10;95.60;;;;;;12978893;22;20861;-85
2022/07/05 07:23:07;;;;;;;2.38;1.80;;;26.10;95.60;;;;;;12981538;22;20193;-84
2022/07/05 07:28:09;;;;;;;2.13;2.03;;;26.10;95.50;;;;;;12980593;22;20196;-85
2022/07/05 07:33:12;;;;;;;2.05;1.92;;;26.20;95.40;;;;;;12980220;22;20169;-84
2022/07/05 07:38:29;;;;;;;1.88;1.77;;;26.20;95.30;;;;;;12998278;22;20503;-85
2022/07/05 07:43:32;;;;;;;2.38;2.15;;;26.20;95.10;;;;;;12981011;22;20192;-84
2022/07/05 07:48:34;;;;;;;1.90;1.80;;;26.20;95.20;;;;;;12979688;22;20227;-85
2022/07/05 07:53:37;;;;;;;2.45;2.25;;;26.20;95.20;;;;;;12980590;22;20166;-85
2022/07/05 07:58:39;;;;;;;2.67;2.47;;;26.20;95.20;;;;;;12980625;22;20190;-84
2022/07/05 08:03:42;;;;;;;1.77;1.67;;;26.20;95.10;;;;;;12979835;22;20621;-84
2022/07/05 08:08:47;;;;;;;2.75;2.55;;;26.10;93.00;;;;;;12980437;22;20170;-84
2022/07/05 08:13:49;;;;;;;2.70;2.03;;;26.10;93.00;;;;;;12927105;22;20205;-84
2022/07/05 08:24:14;;;;;;;4.43;2.03;;;26.30;92.80;;;;;;12952985;22;20227;-84
2022/07/05 08:29:16;;;;;;;2.42;2.22;;;26.20;92.00;;;;;;12978906;22;20170;-84
2022/07/05 08:34:25;;;;;;;2.78;2.22;;;26.30;92.60;;;;;;12978529;22;20177;-84
2022/07/05 08:39:28;;;;;;;2.42;2.22;;;26.30;92.60;;;;;;12979552;22;20528;-84
2022/07/05 08:44:35;;;;;;;2.17;2.08;;;26.30;92.50;;;;;;12951943;22;20174;-84
2022/07/05 08:49:40;;;;;;;2.53;2.33;;;26.40;92.50;;;;;;12978541;22;20177;-84
2022/07/05 08:54:45;;;;;;;2.40;2.20;;;26.50;92.20;;;;;;12978924;22;20232;-84
2022/07/05 08:59:48;;;;;;;2.33;2.20;;;26.60;92.10;;;;;;12980184;22;20593;-84
2022/07/05 09:04:53;;;;;;;2.47;2.30;;;26.70;91.90;;;;;;12951787;22;20178;-84
2022/07/05 09:09:58;;;;;;;2.30;2.20;;;26.80;91.80;;;;;;12978721;22;20575;-84
2022/07/05 09:15:02;;;;;;;2.15;1.95;;;26.80;91.90;;;;;;12953165;22;20170;-84
2022/07/05 09:20:15;;;;;;;1.65;1.55;;;26.80;91.80;;;;;;12950965;22;20236;-84
2022/07/05 09:25:28;;;;;;;2.67;2.47;;;26.90;91.70;;;;;;12997707;22;20474;-84
2022/07/05 09:30:33;;;;;;;2.55;2.35;;;26.70;91.80;;;;;;12996663;22;20165;-84
2022/07/05 09:35:39;;;;;;;2.15;2.00;;;26.70;91.70;;;;;;12976422;22;20165;-85
2022/07/05 09:40:48;;;;;;;1.92;1.80;;;26.50;91.60;;;;;;12994745;22;20189;-85
2022/07/05 09:46:05;;;;;;;2.55;2.35;;;26.50;91.90;;;;;;12978416;22;20220;-84
2022/07/05 09:51:12;;;;;;;2.53;2.15;;;26.50;89.30;;;;;;12952977;22;20177;-84
2022/07/05 09:56:48;;;;;;;1.95;1.85;;;26.80;91.60;;;;;;12961085;22;20170;-84
2022/07/05 10:01:51;;;;;;;2.85;1.45;;;26.90;91.30;;;;;;12954882;22;20193;-85
2022/07/05 10:06:54;;;;;;;2.08;1.98;;;26.40;90.30;;;;;;12982013;22;20182;-85
2022/07/05 10:11:56;;;;;;;2.10;2.00;;;26.60;90.40;;;;;;12990040;22;20592;-84
2022/07/05 10:17:02;;;;;;;2.05;1.85;;;26.50;91.30;;;;;;12982817;22;20174;-84
2022/07/05 10:22:06;;;;;;;2.22;1.83;;;26.60;91.40;;;;;;12980753;22;20244;-88
2022/07/05 10:27:25;;;;;;;2.20;2.10;;;26.50;91.10;;;;;;12999819;22;20166;-84
2022/07/05 10:32:28;;;;;;;2.22;1.98;;;25.90;91.80;;;;;;12978369;22;20170;-84
2022/07/05 10:37:33;;;;;;;1.95;1.85;;;26.20;91.60;;;;;;12979098;22;20519;-84
2022/07/05 10:43:02;;;;;;;2.30;2.03;;;26.40;89.70;;;;;;12952516;22;20193;-84
2022/07/05 10:48:14;;;;;;;2.60;2.40;;;25.60;76.50;;;;;;12951224;22;20178;-84
2022/07/05 10:53:25;;;;;;;1.80;1.70;;;25.90;91.20;;;;;;12983897;22;20170;-84
2022/07/05 10:58:43;;;;;;;2.50;2.30;;;26.30;91.50;;;;;;12999011;22;20216;-84
2022/07/05 11:03:57;;;;;;;2.35;2.22;;;26.30;91.70;;;;;;12981966;22;20252;-84
2022/07/05 11:08:59;;;;;;;2.42;1.77;;;26.40;91.70;;;;;;12971231;22;20169;-84
2022/07/05 11:14:04;;;;;;;4.97;2.88;;;26.40;87.50;;;;;;12950211;22;20206;-84
2022/07/05 11:19:09;;;;;;;2.03;1.83;;;26.60;90.90;;;;;;12951938;22;20576;-84
2022/07/05 11:24:26;;;;;;;1.85;1.75;;;26.60;90.80;;;;;;12981039;22;20162;-84
2022/07/05 11:29:48;;;;;;;1.80;1.70;;;26.80;91.00;;;;;;12981458;22;20275;-84
2022/07/05 11:34:53;;;;;;;2.42;2.10;;;26.80;89.90;;;;;;12953629;22;20174;-83
2022/07/05 11:40:11;;;;;;;2.60;2.20;;;26.80;90.60;;;;;;12980853;22;20216;-84
2022/07/05 11:45:14;;;;;;;2.28;2.10;;;26.70;91.00;;;;;;12979713;22;20219;-83
2022/07/05 11:50:16;;;;;;;5.05;1.65;;;26.90;90.70;;;;;;12951502;22;20209;-84
2022/07/05 11:55:19;;;;;;;2.08;1.98;;;27.00;85.50;;;;;;12953463;22;20169;-84
2022/07/05 12:00:30;;;;;;;1.80;1.70;;;26.90;83.50;;;;;;12980523;22;20193;-84
2022/07/05 12:05:32;;;;;;;4.47;2.05;;;26.90;90.40;;;;;;12989507;22;20165;-83
2022/07/05 12:16:16;;;;;;;2.92;1.45;;;26.90;89.30;;;;;;12979164;22;20177;-83
2022/07/05 12:21:22;;;;;;;2.28;2.08;;;26.60;71.80;;;;;;12979089;22;20185;-84
2022/07/05 12:26:24;;;;;;;2.20;2.05;;;26.60;90.30;;;;;;12951991;22;20173;-84
2022/07/05 12:31:27;;;;;;;2.40;1.80;;;26.70;90.50;;;;;;12978100;22;20170;-84
2022/07/05 12:36:30;;;;;;;2.03;1.92;;;26.80;89.50;;;;;;12979332;22;20228;-84
2022/07/05 12:41:32;;;;;;;3.70;1.70;;;26.90;89.80;;;;;;12951143;22;20202;-84
2022/07/05 12:46:39;;;;;;;2.40;2.20;;;26.70;75.20;;;;;;12952265;22;20215;-83
2022/07/05 12:51:45;;;;;;;3.85;1.30;;;26.80;90.10;;;;;;12982809;22;20170;-83
2022/07/05 13:02:40;;;;;;;1.98;1.88;;;27.00;87.80;;;;;;12976257;22;20613;-88
2022/07/05 13:07:44;;;;;;;3.83;2.22;;;26.90;78.50;;;;;;12952161;22;20204;-93
2022/07/05 13:12:55;;;;;;;7.32;2.60;;;26.70;77.40;;;;;;12900693;23;20206;-93
2022/07/05 13:17:58;;;;;;;3.08;2.30;;;26.80;77.30;;;;;;12937570;23;20572;-92
2022/07/05 13:23:00;;;;;;;4.88;2.47;;;26.90;77.20;;;;;;12961512;22;20221;-92
2022/07/05 13:28:03;;;;;;;2.72;2.40;;;26.80;77.50;;;;;;12929117;23;20483;-92
2022/07/05 13:33:06;;;;;;;1.80;1.70;;;26.60;76.90;;;;;;12919932;23;20548;-91
2022/07/05 13:38:08;;;;;;;2.30;2.20;;;26.50;78.20;;;;;;12923122;23;20220;-91
2022/07/05 13:43:11;;;;;;;2.92;2.47;;;26.50;79.50;;;;;;12946026;22;20263;-93
2022/07/05 13:48:13;;;;;;;2.20;2.00;;;26.40;80.30;;;;;;12908988;23;20209;-78
2022/07/05 13:53:16;;;;;;;4.63;2.08;;;26.50;80.60;;;;;;12938567;23;20224;-79
2022/07/05 13:58:18;;;;;;;4.28;1.70;;;26.40;80.20;;;;;;12920527;23;20486;-80
2022/07/05 14:03:21;;;;;;;2.58;1.80;;;26.20;74.30;;;;;;12918671;23;20190;-80
2022/07/05 14:08:23;;;;;;;4.18;2.55;;;26.00;81.20;;;;;;12936094;23;20167;-80
2022/07/05 14:13:26;;;;;;;2.40;2.20;;;26.30;78.80;;;;;;12918504;23;20178;-80
2022/07/05 14:18:29;;;;;;;3.65;2.58;;;26.50;80.70;;;;;;12917939;23;20208;-80
2022/07/05 14:23:31;;;;;;;5.10;2.28;;;26.70;80.30;;;;;;12920638;22;20248;-79
2022/07/05 14:28:34;;;;;;;3.53;1.10;;;26.80;79.10;;;;;;12925950;23;20189;-78
2022/07/05 14:33:39;;;;;;;2.60;1.17;;;26.70;66.30;;;;;;12919830;23;20178;-79
2022/07/05 14:38:43;;;;;;;1.73;1.35;;;26.50;68.40;;;;;;13033516;22;20231;-80
2022/07/05 14:43:45;;;;;;;8.02;1.80;;;26.70;72.90;;;;;;13046607;22;20302;-80
2022/07/05 14:48:48;;;;;;;7.05;2.03;;;26.20;67.50;;;;;;13062749;22;20169;-80
2022/07/05 14:53:50;;;;;;;2.60;1.10;;;26.90;79.00;;;;;;13046078;22;20173;-80
2022/07/05 14:58:53;;;;;;;4.65;2.03;;;27.40;65.40;;;;;;13044178;22;20181;-80
2022/07/05 15:03:55;;;;;;;12.43;3.15;;;26.70;70.50;;;;;;13046252;22;20207;-80
2022/07/05 15:08:58;;;;;;;4.05;2.03;;;26.50;69.80;;;;;;13018492;22;20241;-80
2022/07/05 15:14:03;;;;;;;5.50;3.78;;;27.50;77.70;;;;;;13044775;22;20554;-79
2022/07/05 15:19:07;;;;;;;1.98;1.77;;;27.70;70.50;;;;;;13017612;22;20678;-79
2022/07/05 15:24:10;;;;;;;2.30;1.92;;;28.70;76.80;;;;;;13043929;22;20230;-79
2022/07/05 15:29:19;;;;;;;6.30;2.55;;;28.90;76.50;;;;;;12950775;22;20263;-79
2022/07/05 15:34:22;;;;;;;1.67;1.55;;;29.00;76.60;;;;;;12965766;22;20485;-81
2022/07/05 15:39:26;;;;;;;12.80;1.80;;;29.00;76.40;;;;;;12977006;22;20251;-81
2022/07/05 15:44:29;;;;;;;10.18;1.40;;;28.50;69.10;;;;;;12948757;22;20243;-80
2022/07/05 15:49:32;;;;;;;5.47;1.20;;;26.80;71.90;;;;;;12950538;22;20228;-80
2022/07/05 15:54:35;;;;;;;3.28;1.85;;;27.60;74.90;;;;;;12953541;22;20729;-80
2022/07/05 15:59:41;;;;;;;1.35;1.25;;;27.50;69.30;;;;;;12981648;22;20224;-80
2022/07/05 16:04:44;;;;;;;2.55;2.03;;;26.30;71.20;;;;;;12981951;22;20162;-79
2022/07/05 16:09:49;;;;;;;2.35;2.15;;;26.20;78.00;;;;;;12954486;22;20162;-80
2022/07/05 16:16:10;;;;;;;4.85;1.90;;;25.70;74.80;;;;;;12953733;22;20174;-79
2022/07/05 16:20:34;;;;;;;7.25;3.58;;;26.00;76.20;;;;;;12979587;22;20580;-80
2022/07/05 16:25:37;;;;;;;2.33;1.67;;;25.80;74.50;;;;;;12979979;22;20193;-80
2022/07/05 16:30:40;;;;;;;6.85;2.20;;;25.20;81.30;;;;;;12980726;22;20162;-80
2022/07/05 16:35:42;;;;;;;3.53;2.35;;;25.00;82.70;;;;;;12979567;22;20170;-80
2022/07/05 16:40:45;;;;;;;4.22;2.10;;;24.70;78.50;;;;;;12948521;22;20572;-80
2022/07/05 16:45:47;;;;;;;6.45;2.15;;;24.50;77.80;;;;;;12949478;22;20170;-80
2022/07/05 16:50:50;;;;;;;4.57;1.58;;;24.40;80.30;;;;;;12976735;22;20173;-79
2022/07/05 16:55:56;;;;;;;9.68;2.10;;;24.80;77.90;;;;;;12994646;22;20236;-79
2022/07/05 17:00:59;;;;;;;5.82;3.45;;;25.30;78.30;;;;;;12976640;22;20239;-79
2022/07/05 17:06:03;;;;;;;6.28;3.28;;;26.00;89.50;;;;;;12948998;22;20235;-79
2022/07/05 17:11:11;;;;;;;7.40;2.75;;;27.20;86.70;;;;;;12949910;22;20166;-79
2022/07/05 17:16:15;;;;;;;4.38;2.97;;;27.30;77.80;;;;;;12977463;22;20192;-79
2022/07/05 17:21:18;;;;;;;4.95;3.00;;;27.00;77.60;;;;;;12976882;22;20240;-79
2022/07/05 17:26:23;;;;;;;9.30;3.45;;;27.30;85.50;;;;;;12975542;22;20193;-79
2022/07/05 17:31:25;;;;;;;5.45;3.30;;;27.50;84.80;;;;;;12975678;22;20492;-79
2022/07/05 17:36:28;;;;;;;5.28;3.03;;;27.70;84.60;;;;;;12983187;22;20170;-80
2022/07/05 17:41:30;;;;;;;6.47;3.35;;;27.60;84.60;;;;;;12976199;22;20208;-79
2022/07/05 17:46:33;;;;;;;4.60;2.58;;;27.70;84.60;;;;;;12976318;22;20199;-79
2022/07/05 17:51:35;;;;;;;4.35;2.47;;;27.60;74.80;;;;;;12976618;22;20178;-79
2022/07/05 17:56:58;;;;;;;5.50;3.00;;;27.70;84.70;;;;;;12977266;22;20182;-79
2022/07/05 18:02:01;;;;;;;7.60;2.70;;;27.70;84.40;;;;;;12975540;22;20190;-80
2022/07/05 18:07:04;;;;;;;3.65;2.53;;;27.50;84.50;;;;;;12974851;22;20219;-79
2022/07/05 18:12:07;;;;;;;6.28;1.95;;;27.60;84.70;;;;;;12979591;22;20562;-80
2022/07/05 18:17:10;;;;;;;4.13;2.58;;;27.40;73.50;;;;;;12955283;22;20642;-81
2022/07/05 18:22:13;;;;;;;5.07;1.77;;;26.50;77.80;;;;;;12980996;22;20178;-80
2022/07/05 18:27:15;;;;;;;4.03;1.55;;;24.90;80.20;;;;;;12956354;22;20528;-81
2022/07/05 18:32:23;;;;;;;3.65;1.80;;;24.10;82.00;;;;;;12974773;22;20166;-79
2022/07/05 18:37:26;;;;;;;3.58;1.65;;;25.70;80.20;;;;;;12986735;22;20173;-80
2022/07/05 18:42:28;;;;;;;5.05;1.60;;;26.40;78.80;;;;;;12983469;22;20185;-80
2022/07/05 18:47:31;;;;;;;3.40;1.67;;;26.60;78.40;;;;;;12956583;22;20173;-80
2022/07/05 18:52:34;;;;;;;4.63;1.95;;;26.80;78.40;;;;;;12983259;22;20511;-80
2022/07/05 18:57:37;;;;;;;2.25;1.95;;;26.80;78.70;;;;;;12955872;22;20186;-80
2022/07/05 19:02:40;;;;;;;1.42;1.33;;;26.90;78.80;;;;;;12956893;22;20236;-80
2022/07/05 19:18:25;;;;;;;1.70;1.58;;;26.90;79.50;;;;;;13001607;22;20248;-80
2022/07/05 19:23:27;;;;;;;3.95;1.65;;;26.90;79.90;;;;;;12931304;22;20762;-80
2022/07/05 19:28:30;;;;;;;8.07;2.08;;;26.90;80.10;;;;;;12987400;22;20652;-81
2022/07/05 19:33:32;;;;;;;3.90;1.45;;;26.20;77.60;;;;;;12979238;22;20169;-81
2022/07/05 19:38:35;;;;;;;3.60;1.70;;;25.80;76.70;;;;;;12953178;22;20200;-81
2022/07/05 19:43:37;;;;;;;2.58;1.70;;;25.40;75.90;;;;;;12954501;22;20539;-82
2022/07/05 19:48:44;;;;;;;1.63;1.50;;;25.20;77.60;;;;;;12981530;22;20272;-80
2022/07/05 19:53:46;;;;;;;1.83;1.73;;;24.60;78.60;;;;;;12972846;22;20212;-80
2022/07/05 19:58:49;;;;;;;3.00;1.98;;;25.10;78.90;;;;;;12982186;22;20169;-81
2022/07/05 20:03:51;;;;;;;6.60;1.90;;;25.20;78.30;;;;;;12952122;22;20211;-81
2022/07/05 20:08:54;;;;;;;7.32;2.00;;;25.10;78.30;;;;;;12998910;22;20165;-81
2022/07/05 20:13:56;;;;;;;4.70;2.65;;;25.00;78.00;;;;;;12954103;22;20559;-81
2022/07/05 20:18:59;;;;;;;7.85;2.63;;;25.00;78.60;;;;;;12948130;22;20177;-80
2022/07/05 20:24:01;;;;;;;2.78;2.08;;;24.90;78.90;;;;;;12947867;22;20537;-81
2022/07/05 20:29:05;;;;;;;4.35;1.55;;;24.80;79.00;;;;;;12947907;22;20190;-80
2022/07/05 20:34:08;;;;;;;4.13;2.03;;;24.70;79.20;;;;;;12974641;22;20566;-82
2022/07/05 20:39:11;;;;;;;4.40;2.00;;;24.70;79.80;;;;;;12975834;22;20896;-81
2022/07/05 20:44:14;;;;;;;2.28;2.05;;;24.60;80.70;;;;;;12976405;22;20190;-81
2022/07/05 20:49:17;;;;;;;2.28;2.05;;;24.50;81.30;;;;;;12975475;22;20169;-81
2022/07/05 20:54:19;;;;;;;3.03;1.90;;;24.40;82.60;;;;;;12976392;22;20192;-80
2022/07/05 20:59:21;;;;;;;3.30;1.73;;;24.30;83.20;;;;;;12978686;22;20166;-80
2022/07/05 21:04:24;;;;;;;2.92;1.60;;;24.20;85.20;;;;;;12977287;22;20236;-79
2022/07/05 21:09:26;;;;;;;2.20;1.90;;;24.10;86.70;;;;;;12980109;22;20567;-82
2022/07/05 21:14:29;;;;;;;2.72;2.47;;;24.00;86.70;;;;;;12951178;22;20169;-81
2022/07/05 21:19:32;;;;;;;3.47;2.08;;;23.80;87.70;;;;;;12979913;22;20489;-81
2022/07/05 21:24:37;;;;;;;6.15;2.08;;;23.70;88.60;;;;;;12952787;22;20231;-81
2022/07/05 21:29:39;;;;;;;5.30;2.05;;;23.50;89.40;;;;;;12954127;22;20166;-81
2022/07/05 21:34:41;;;;;;;3.35;2.08;;;23.40;90.10;;;;;;12976862;22;20223;-80
2022/07/05 21:39:44;;;;;;;3.15;2.10;;;23.30;88.50;;;;;;12979556;22;20518;-80
2022/07/05 21:44:47;;;;;;;3.85;1.83;;;23.20;88.50;;;;;;12981729;22;20189;-81
2022/07/05 21:49:49;;;;;;;4.18;2.00;;;23.10;88.20;;;;;;12930818;22;20178;-81
2022/07/05 21:54:52;;;;;;;4.68;2.30;;;23.10;89.10;;;;;;12956257;22;20204;-81
2022/07/05 22:05:15;;;;;;;3.63;2.50;;;22.90;89.00;;;;;;12997226;22;20216;-83
2022/07/05 22:10:18;;;;;;;2.38;2.17;;;22.80;89.40;;;;;;12983030;22;20170;-83
2022/07/05 22:15:20;;;;;;;2.65;2.10;;;22.80;90.00;;;;;;12955311;22;20923;-83
2022/07/05 22:20:24;;;;;;;5.30;2.05;;;22.70;90.10;;;;;;12983712;22;20170;-82
2022/07/05 22:25:27;;;;;;;5.00;2.50;;;;;;;;;;12931273;22;20189;-83
2022/07/05 22:30:30;;;;;;;2.65;2.30;;;22.60;89.70;;;;;;13003513;22;20166;-83
2022/07/05 22:35:32;;;;;;;2.92;2.40;;;22.60;90.20;;;;;;12997063;22;20514;-83
2022/07/05 22:40:35;;;;;;;2.47;2.28;;;22.60;90.20;;;;;;12957346;22;20231;-83
2022/07/05 22:45:38;;;;;;;3.95;2.40;;;22.60;90.60;;;;;;12983293;22;20239;-83
2022/07/05 22:50:40;;;;;;;4.47;2.40;;;22.50;90.90;;;;;;12983965;22;20204;-83
2022/07/05 22:55:43;;;;;;;3.67;2.15;;;22.50;91.10;;;;;;12983680;22;20166;-83
2022/07/05 23:00:45;;;;;;;3.53;2.03;;;22.40;92.10;;;;;;12955806;22;20768;-83
2022/07/05 23:05:48;;;;;;;3.72;2.47;;;22.30;92.20;;;;;;12957145;22;20220;-83
2022/07/05 23:10:50;;;;;;;3.45;2.15;;;22.30;92.40;;;;;;12983828;22;20228;-83
2022/07/05 23:15:54;;;;;;;4.80;2.40;;;22.20;93.40;;;;;;12957244;22;20260;-83
2022/07/05 23:20:56;;;;;;;3.00;2.38;;;22.10;93.50;;;;;;12983691;22;20197;-83
2022/07/05 23:25:59;;;;;;;3.63;2.90;;;22.00;94.00;;;;;;12983568;22;20185;-83
2022/07/05 23:31:01;;;;;;;3.78;2.72;;;22.00;94.20;;;;;;12983234;22;20162;-83
2022/07/05 23:36:04;;;;;;;4.00;2.40;;;21.90;94.50;;;;;;12967296;22;20174;-83
2022/07/05 23:41:07;;;;;;;4.43;2.42;;;21.90;94.90;;;;;;12982220;22;20166;-83
2022/07/05 23:46:10;;;;;;;2.97;2.60;;;21.80;95.20;;;;;;12982778;22;20185;-83
2022/07/05 23:51:12;;;;;;;3.40;2.83;;;21.80;95.40;;;;;;12982667;22;20165;-84
2022/07/05 23:56:16;;;;;;;5.65;3.40;;;21.70;96.30;;;;;;12955389;22;20173;-84
